Time;durP1;ratioP1;P1;durP2;ratioP2;P2;SDS_P1;SDS_P2;PMS_P1;PMS_P2;Temp;Humidity;BMP_temperature;BMP_pressure;BME280_temperature;BME280_humidity;BME280_pressure;Samples;Min_cycle;Max_cycle;Signal;HPM_P1;HPM_P2
2023/10/07 00:00:47;;;;;;;12.80;10.95;;;22.90;99.90;;;;;;6267191;27;89232;-74
2023/10/07 00:03:49;;;;;;;11.93;10.50;;;22.90;99.90;;;;;;6259377;27;88416;-75
2023/10/07 00:06:51;;;;;;;11.80;10.60;;;22.90;99.90;;;;;;6274774;27;88364;-76
2023/10/07 00:09:57;;;;;;;11.57;10.43;;;22.90;99.90;;;;;;6278680;27;88896;-75
2023/10/07 00:13:09;;;;;;;11.88;10.68;;;22.90;99.90;;;;;;6267796;27;88994;-75
2023/10/07 00:16:17;;;;;;;12.30;11.00;;;22.90;99.90;;;;;;6275598;27;90291;-75
2023/10/07 00:19:19;;;;;;;13.07;11.02;;;22.90;99.90;;;;;;6272450;27;89180;-75
2023/10/07 00:22:21;;;;;;;12.57;11.27;;;22.90;99.90;;;;;;6278618;27;90186;-75
2023/10/07 00:25:24;;;;;;;12.25;10.95;;;22.90;99.90;;;;;;6285655;27;89299;-76
2023/10/07 00:28:32;;;;;;;12.10;10.90;;;22.80;99.90;;;;;;6270480;27;89339;-74
2023/10/07 00:31:34;;;;;;;12.45;11.05;;;22.80;99.90;;;;;;6276211;27;89034;-75
2023/10/07 00:34:39;;;;;;;12.38;11.07;;;22.80;99.90;;;;;;6285649;27;88936;-76
2023/10/07 00:37:43;;;;;;;15.00;11.88;;;22.90;99.90;;;;;;6277869;27;89535;-74
2023/10/07 00:40:52;;;;;;;12.27;10.98;;;22.80;99.90;;;;;;6292664;27;89015;-74
2023/10/07 00:43:59;;;;;;;11.90;10.70;;;22.80;99.90;;;;;;6274712;27;89143;-75
2023/10/07 00:47:12;;;;;;;11.60;10.48;;;22.80;99.90;;;;;;6278812;27;89167;-73
2023/10/07 00:50:15;;;;;;;12.23;10.93;;;22.80;99.90;;;;;;6278911;27;88994;-75
2023/10/07 00:53:24;;;;;;;12.23;11.02;;;22.90;99.90;;;;;;6286061;27;90230;-75
2023/10/07 00:56:33;;;;;;;12.93;11.52;;;22.90;99.90;;;;;;6282754;27;89053;-75
2023/10/07 00:59:40;;;;;;;12.18;10.98;;;22.90;99.90;;;;;;6282331;27;91410;-75
2023/10/07 01:02:45;;;;;;;12.45;11.15;;;22.80;99.90;;;;;;6281410;27;89304;-74
2023/10/07 01:06:09;;;;;;;11.35;10.23;;;22.80;99.90;;;;;;6268941;27;89339;-75
2023/10/07 01:09:14;;;;;;;12.38;11.07;;;22.80;99.90;;;;;;6273657;27;89387;-75
2023/10/07 01:12:18;;;;;;;12.57;11.27;;;22.80;99.90;;;;;;6280216;27;88678;-74
2023/10/07 01:15:23;;;;;;;11.82;10.63;;;22.80;99.90;;;;;;6279135;27;88997;-75
2023/10/07 01:18:27;;;;;;;12.00;10.80;;;22.80;99.90;;;;;;6281985;27;89959;-75
2023/10/07 01:21:33;;;;;;;12.13;10.90;;;22.80;99.90;;;;;;6281338;27;89206;-75
2023/10/07 01:24:46;;;;;;;12.70;11.38;;;22.80;99.90;;;;;;6281115;27;89015;-73
2023/10/07 01:27:53;;;;;;;11.75;10.55;;;22.80;99.90;;;;;;6281931;27;89190;-73
2023/10/07 01:31:08;;;;;;;12.65;11.30;;;22.80;99.90;;;;;;6281888;27;88102;-72
2023/10/07 01:34:13;;;;;;;11.93;10.73;;;22.80;99.90;;;;;;6278370;27;89064;-75
2023/10/07 01:37:21;;;;;;;12.02;10.73;;;22.80;99.90;;;;;;6280080;27;88009;-72
2023/10/07 01:40:27;;;;;;;12.38;11.13;;;22.80;99.90;;;;;;6274606;27;88352;-73
2023/10/07 01:43:29;;;;;;;11.95;10.75;;;22.80;99.90;;;;;;6276606;27;89175;-73
2023/10/07 01:46:32;;;;;;;12.55;10.82;;;22.80;99.90;;;;;;6279692;27;88025;-72
2023/10/07 01:49:34;;;;;;;11.25;10.13;;;22.80;99.90;;;;;;6280493;27;89994;-74
2023/10/07 01:52:37;;;;;;;12.55;11.10;;;22.80;99.90;;;;;;6282391;27;89050;-73
2023/10/07 01:55:42;;;;;;;12.02;10.65;;;22.80;99.90;;;;;;6271380;27;88192;-74
2023/10/07 01:58:45;;;;;;;11.88;10.52;;;22.80;99.90;;;;;;6280884;27;88847;-74
2023/10/07 02:01:58;;;;;;;13.07;11.07;;;22.80;99.90;;;;;;6279314;27;89011;-73
2023/10/07 02:05:04;;;;;;;11.60;10.40;;;22.70;99.90;;;;;;6280966;27;89134;-74
2023/10/07 02:08:11;;;;;;;12.07;10.77;;;22.80;99.90;;;;;;6281066;27;89545;-74
2023/10/07 02:11:18;;;;;;;11.77;10.55;;;22.80;99.90;;;;;;6279726;27;88902;-74
2023/10/07 02:14:23;;;;;;;12.57;11.27;;;22.70;99.90;;;;;;6280713;27;89032;-75
2023/10/07 02:17:26;;;;;;;11.50;10.30;;;22.70;99.90;;;;;;6279649;27;89031;-74
2023/10/07 02:20:36;;;;;;;12.07;10.75;;;22.70;99.90;;;;;;6278889;27;89667;-75
2023/10/07 02:23:40;;;;;;;11.60;10.40;;;22.70;99.90;;;;;;6272450;27;89741;-75
2023/10/07 02:26:44;;;;;;;11.95;10.75;;;22.70;99.90;;;;;;6279453;27;89094;-75
2023/10/07 02:29:48;;;;;;;11.43;10.30;;;22.70;99.90;;;;;;6286333;27;89392;-74
2023/10/07 02:32:50;;;;;;;11.65;10.45;;;22.80;99.90;;;;;;6280145;27;89055;-75
2023/10/07 02:35:55;;;;;;;11.70;10.48;;;22.80;99.90;;;;;;6280293;27;89669;-75
2023/10/07 02:39:02;;;;;;;11.82;10.55;;;22.70;99.90;;;;;;6279708;27;88975;-73
2023/10/07 02:42:05;;;;;;;11.85;10.65;;;22.80;99.90;;;;;;6281322;27;88362;-75
2023/10/07 02:45:20;;;;;;;12.13;10.80;;;22.80;99.90;;;;;;6270869;27;88992;-75
2023/10/07 02:48:22;;;;;;;11.57;10.48;;;22.70;99.90;;;;;;6291075;27;91184;-76
2023/10/07 02:51:27;;;;;;;11.95;10.65;;;22.70;99.90;;;;;;6279323;27;89874;-75
2023/10/07 02:54:32;;;;;;;11.60;10.38;;;22.70;99.90;;;;;;6278032;27;89081;-75
2023/10/07 02:57:40;;;;;;;12.35;11.05;;;22.70;99.90;;;;;;6280058;27;89132;-75
2023/10/07 03:00:49;;;;;;;11.80;10.60;;;22.70;99.90;;;;;;6280346;27;89049;-74
2023/10/07 03:03:51;;;;;;;12.45;11.00;;;22.70;99.90;;;;;;6269280;27;87730;-74
2023/10/07 03:06:53;;;;;;;11.88;10.68;;;22.70;99.90;;;;;;6269535;27;89158;-75
2023/10/07 03:10:04;;;;;;;11.63;10.43;;;22.70;99.90;;;;;;6268686;27;90438;-75
2023/10/07 03:13:08;;;;;;;11.75;10.55;;;22.70;99.90;;;;;;6267463;27;88391;-74
2023/10/07 03:16:27;;;;;;;11.20;10.05;;;22.70;99.90;;;;;;6278745;27;89169;-74
2023/10/07 03:19:47;;;;;;;11.35;10.18;;;22.70;99.90;;;;;;6279260;27;89084;-72
2023/10/07 03:26:09;;;;;;;11.18;9.98;;;22.70;99.90;;;;;;6275639;27;88282;-73
2023/10/07 03:29:29;;;;;;;11.95;10.25;;;22.70;99.90;;;;;;6276904;27;89125;-74
2023/10/07 03:32:53;;;;;;;10.52;9.40;;;22.70;99.90;;;;;;6278115;27;89151;-74
2023/10/07 03:36:15;;;;;;;10.88;9.77;;;22.70;99.90;;;;;;6268962;27;88228;-73
2023/10/07 03:39:23;;;;;;;11.15;10.05;;;22.70;99.90;;;;;;6268394;27;87934;-73
2023/10/07 03:42:25;;;;;;;11.80;10.57;;;22.70;99.90;;;;;;6270892;27;89119;-73
2023/10/07 03:45:28;;;;;;;11.15;10.05;;;22.70;99.90;;;;;;6278487;27;88309;-74
2023/10/07 03:48:32;;;;;;;10.88;9.77;;;22.60;99.90;;;;;;6284550;27;88723;-74
2023/10/07 03:51:35;;;;;;;11.52;10.27;;;22.60;99.90;;;;;;6276875;27;88977;-74
2023/10/07 03:54:40;;;;;;;11.57;10.48;;;22.60;99.90;;;;;;6270905;27;90720;-74
2023/10/07 03:57:43;;;;;;;11.65;10.30;;;22.60;99.90;;;;;;6277286;27;89146;-74
2023/10/07 04:00:46;;;;;;;11.23;10.10;;;22.60;99.90;;;;;;6272322;27;89103;-73
2023/10/07 04:03:50;;;;;;;11.75;10.55;;;22.70;99.90;;;;;;6282899;27;89470;-74
2023/10/07 04:06:52;;;;;;;10.95;9.85;;;22.60;99.90;;;;;;6280917;27;88003;-73
2023/10/07 04:09:54;;;;;;;12.18;10.57;;;22.60;99.90;;;;;;6282948;27;88982;-75
2023/10/07 04:12:56;;;;;;;10.15;9.15;;;22.60;99.90;;;;;;6281730;27;89102;-73
2023/10/07 04:16:01;;;;;;;11.38;10.20;;;22.70;99.90;;;;;;6284220;27;88360;-73
2023/10/07 04:19:30;;;;;;;11.80;10.60;;;22.70;99.90;;;;;;6285700;27;89127;-74
2023/10/07 04:22:34;;;;;;;11.80;10.57;;;22.70;99.90;;;;;;6276583;27;89373;-74
2023/10/07 04:25:43;;;;;;;11.43;10.23;;;22.70;99.90;;;;;;6280293;27;90264;-75
2023/10/07 04:28:48;;;;;;;11.73;10.30;;;22.70;99.90;;;;;;6278596;27;87860;-74
2023/10/07 04:31:53;;;;;;;11.75;10.50;;;22.70;99.90;;;;;;6280836;27;89382;-73
2023/10/07 04:35:16;;;;;;;12.23;10.95;;;22.70;99.90;;;;;;6281703;27;89036;-74
2023/10/07 04:38:39;;;;;;;11.57;10.38;;;22.70;99.90;;;;;;6278831;27;89281;-74
2023/10/07 04:41:43;;;;;;;11.75;10.55;;;22.70;99.90;;;;;;6278851;27;88629;-74
2023/10/07 04:45:22;;;;;;;11.35;10.15;;;22.70;99.90;;;;;;6280104;27;88969;-74
2023/10/07 04:48:24;;;;;;;11.93;10.48;;;22.60;99.90;;;;;;6278231;27;88281;-74
2023/10/07 04:51:47;;;;;;;10.93;9.82;;;22.60;99.90;;;;;;6281485;27;89253;-71
2023/10/07 04:54:52;;;;;;;11.10;10.00;;;22.60;99.90;;;;;;6284169;27;89373;-72
2023/10/07 04:58:02;;;;;;;10.90;9.80;;;22.70;99.90;;;;;;6291409;27;89751;-74
2023/10/07 05:01:22;;;;;;;10.98;9.85;;;22.70;99.90;;;;;;6276120;27;89198;-73
2023/10/07 05:04:25;;;;;;;10.80;9.70;;;22.70;99.90;;;;;;6285132;27;89125;-73
2023/10/07 05:07:27;;;;;;;11.48;10.27;;;22.70;99.90;;;;;;6282470;27;88980;-72
2023/10/07 05:10:29;;;;;;;12.48;10.00;;;22.70;99.90;;;;;;6279939;27;89023;-73
2023/10/07 05:13:32;;;;;;;10.65;9.63;;;22.70;99.90;;;;;;6287729;27;89027;-72
2023/10/07 05:16:35;;;;;;;12.20;10.05;;;22.70;99.90;;;;;;6276061;27;89228;-72
2023/10/07 05:19:38;;;;;;;10.43;9.32;;;22.70;99.90;;;;;;6282035;27;88221;-71
2023/10/07 05:22:40;;;;;;;10.82;9.55;;;22.70;99.90;;;;;;6283116;27;87907;-73
2023/10/07 05:25:48;;;;;;;11.48;9.52;;;22.70;99.90;;;;;;6270797;27;92135;-73
2023/10/07 05:28:50;;;;;;;10.75;9.55;;;22.70;99.90;;;;;;6279446;27;89950;-73
2023/10/07 05:31:52;;;;;;;9.88;8.80;;;22.70;99.90;;;;;;6278798;27;89147;-72
2023/10/07 05:34:57;;;;;;;10.55;9.45;;;22.70;99.90;;;;;;6280326;27;89321;-73
2023/10/07 05:38:03;;;;;;;11.13;9.93;;;22.70;99.90;;;;;;6281548;27;91405;-72
2023/10/07 05:41:12;;;;;;;10.68;9.52;;;22.70;99.90;;;;;;6282614;27;88040;-73
2023/10/07 05:44:15;;;;;;;11.73;9.90;;;22.60;99.90;;;;;;6282375;27;89189;-72
2023/10/07 05:47:17;;;;;;;10.45;9.35;;;22.70;99.90;;;;;;6277532;27;89125;-73
2023/10/07 05:50:22;;;;;;;11.05;9.23;;;22.70;99.90;;;;;;6286811;27;88723;-73
2023/10/07 05:53:24;;;;;;;10.57;9.48;;;22.70;99.90;;;;;;6281805;27;89204;-73
2023/10/07 05:56:26;;;;;;;10.57;9.43;;;22.60;99.90;;;;;;6280299;27;89069;-75
2023/10/07 05:59:33;;;;;;;11.23;10.02;;;22.60;99.90;;;;;;6281079;27;90029;-73
2023/10/07 06:02:35;;;;;;;10.43;9.30;;;22.60;99.90;;;;;;6280704;27;88459;-73
2023/10/07 06:05:39;;;;;;;10.90;9.80;;;22.60;99.90;;;;;;6281341;27;89108;-74
2023/10/07 06:08:41;;;;;;;9.90;8.95;;;22.70;99.90;;;;;;6277804;27;89188;-73
2023/10/07 06:11:44;;;;;;;10.85;9.57;;;22.60;99.90;;;;;;6272485;27;89041;-73
2023/10/07 06:14:46;;;;;;;10.55;9.45;;;22.60;99.90;;;;;;6276875;27;89463;-72
2023/10/07 06:17:48;;;;;;;11.48;9.55;;;22.60;99.90;;;;;;6281872;27;89617;-73
2023/10/07 06:20:52;;;;;;;12.25;9.93;;;22.60;99.90;;;;;;6277989;27;87478;-74
2023/10/07 06:23:55;;;;;;;10.40;9.32;;;22.70;99.90;;;;;;6281533;27;89014;-73
2023/10/07 06:26:58;;;;;;;11.05;9.82;;;22.60;99.90;;;;;;6280019;27;89098;-74
2023/10/07 06:30:00;;;;;;;10.52;9.50;;;22.60;99.90;;;;;;6280920;27;89705;-73
2023/10/07 06:33:03;;;;;;;9.93;8.93;;;22.60;99.90;;;;;;6281343;27;88005;-73
2023/10/07 06:36:10;;;;;;;10.40;9.40;;;22.70;99.90;;;;;;6277048;27;88760;-74
2023/10/07 06:39:12;;;;;;;10.60;9.48;;;22.70;99.90;;;;;;6276832;27;89149;-73
2023/10/07 06:42:14;;;;;;;10.65;9.52;;;22.60;99.90;;;;;;6281809;27;89002;-74
2023/10/07 06:45:17;;;;;;;10.52;9.48;;;22.60;99.90;;;;;;6280428;27;89107;-73
2023/10/07 06:48:23;;;;;;;10.30;9.30;;;22.60;99.90;;;;;;6277612;27;89154;-73
2023/10/07 06:51:29;;;;;;;10.25;9.25;;;22.70;99.90;;;;;;6277895;27;88630;-74
2023/10/07 06:54:32;;;;;;;10.38;9.25;;;22.70;99.90;;;;;;6276403;27;89266;-73
2023/10/07 06:57:34;;;;;;;11.18;9.65;;;22.60;99.90;;;;;;6280433;27;89242;-74
2023/10/07 07:00:47;;;;;;;10.20;9.20;;;22.60;99.90;;;;;;6279644;27;90254;-73
2023/10/07 07:03:49;;;;;;;10.57;9.48;;;22.60;99.90;;;;;;6287444;27;89227;-74
2023/10/07 07:07:09;;;;;;;10.50;9.43;;;22.60;99.90;;;;;;6279029;27;89054;-73
2023/10/07 07:10:16;;;;;;;10.68;9.52;;;22.60;99.90;;;;;;6280505;27;89107;-73
2023/10/07 07:13:23;;;;;;;10.13;9.13;;;22.60;99.90;;;;;;6281180;27;89103;-73
2023/10/07 07:16:25;;;;;;;11.18;9.63;;;22.60;99.90;;;;;;6268676;27;89118;-73
2023/10/07 07:19:37;;;;;;;10.00;8.77;;;22.60;99.90;;;;;;6279136;27;89147;-74
2023/10/07 07:22:43;;;;;;;9.75;8.75;;;22.60;99.90;;;;;;6280386;27;88027;-74
2023/10/07 07:25:50;;;;;;;10.00;8.95;;;22.60;99.90;;;;;;6277631;27;87977;-72
2023/10/07 07:28:57;;;;;;;10.02;8.80;;;22.60;99.90;;;;;;6281156;27;89158;-73
2023/10/07 07:31:59;;;;;;;9.57;8.68;;;22.60;99.90;;;;;;6279302;27;89895;-74
2023/10/07 07:35:02;;;;;;;10.20;9.10;;;22.60;99.90;;;;;;6280455;27;89124;-74
2023/10/07 07:38:25;;;;;;;9.93;8.93;;;22.60;99.90;;;;;;6288048;27;89345;-73
2023/10/07 07:41:34;;;;;;;9.60;8.60;;;22.60;99.90;;;;;;6282136;27;89191;-74
2023/10/07 07:44:37;;;;;;;10.13;9.13;;;22.60;99.90;;;;;;6280235;27;89178;-74
2023/10/07 07:47:39;;;;;;;10.13;8.60;;;22.60;99.90;;;;;;6286549;27;89658;-75
2023/10/07 07:50:42;;;;;;;9.95;8.95;;;22.60;99.90;;;;;;6278680;27;89105;-73
2023/10/07 07:53:45;;;;;;;8.93;8.02;;;22.60;99.90;;;;;;6281082;27;88570;-74
2023/10/07 07:56:48;;;;;;;12.30;9.38;;;22.60;99.90;;;;;;6276620;27;89126;-74
2023/10/07 07:59:50;;;;;;;10.43;9.18;;;22.60;99.90;;;;;;6279492;27;88867;-74
2023/10/07 08:02:55;;;;;;;9.70;8.73;;;22.60;99.90;;;;;;6280269;27;90123;-73
2023/10/07 08:05:57;;;;;;;10.40;8.85;;;22.60;99.90;;;;;;6255896;27;89201;-74
2023/10/07 08:09:02;;;;;;;9.95;8.68;;;22.60;99.90;;;;;;6277877;27;89079;-74
2023/10/07 08:12:09;;;;;;;9.90;8.90;;;22.60;99.90;;;;;;6278986;27;88989;-74
2023/10/07 08:15:21;;;;;;;9.40;8.25;;;22.60;99.90;;;;;;6278637;27;89133;-74
2023/10/07 08:18:28;;;;;;;9.18;8.20;;;22.60;99.90;;;;;;6277884;27;89014;-74
2023/10/07 08:21:30;;;;;;;9.40;8.40;;;22.60;99.90;;;;;;6273018;27;89621;-74
2023/10/07 08:24:34;;;;;;;9.70;8.40;;;22.50;99.90;;;;;;6280521;27;88332;-74
2023/10/07 08:27:45;;;;;;;9.15;8.00;;;22.60;99.90;;;;;;6277565;27;89074;-75
2023/10/07 08:30:47;;;;;;;8.80;8.00;;;22.60;99.90;;;;;;6273150;27;89052;-73
2023/10/07 08:33:55;;;;;;;9.27;8.27;;;22.60;99.90;;;;;;6278408;27;90088;-73
2023/10/07 08:37:01;;;;;;;9.40;8.38;;;22.60;99.90;;;;;;6265764;27;89499;-72
2023/10/07 08:40:14;;;;;;;8.45;7.65;;;22.60;99.90;;;;;;6278912;27;89030;-72
2023/10/07 08:43:20;;;;;;;10.27;8.40;;;22.60;99.90;;;;;;6277258;27;89237;-74
2023/10/07 08:46:22;;;;;;;9.55;8.55;;;22.60;99.90;;;;;;6282542;27;89126;-74
2023/10/07 08:49:25;;;;;;;8.60;7.75;;;22.60;99.90;;;;;;6289096;27;89218;-74
2023/10/07 08:52:29;;;;;;;9.00;8.10;;;22.60;99.90;;;;;;6281810;27;89166;-74
2023/10/07 08:55:33;;;;;;;10.35;8.20;;;22.60;99.90;;;;;;6281567;27;88589;-73
2023/10/07 08:58:37;;;;;;;8.82;7.93;;;22.60;99.90;;;;;;6283125;27;89189;-73
2023/10/07 09:01:42;;;;;;;8.65;7.82;;;22.60;99.90;;;;;;6281198;27;88997;-74
2023/10/07 09:04:43;;;;;;;8.65;7.75;;;22.60;99.90;;;;;;6277273;27;89945;-75
2023/10/07 09:07:49;;;;;;;9.43;8.00;;;22.50;99.90;;;;;;6283136;27;89336;-75
2023/10/07 09:10:55;;;;;;;8.18;7.38;;;22.50;99.90;;;;;;6274932;27;89197;-75
2023/10/07 09:14:01;;;;;;;8.40;7.60;;;22.50;99.90;;;;;;6281848;27;89110;-74
2023/10/07 09:17:04;;;;;;;8.02;7.22;;;22.50;99.90;;;;;;6282857;27;89563;-74
2023/10/07 09:20:17;;;;;;;8.57;7.70;;;22.60;99.90;;;;;;6282195;27;88374;-76
2023/10/07 09:23:21;;;;;;;8.95;7.30;;;22.50;99.90;;;;;;6281299;27;88009;-74
2023/10/07 09:26:33;;;;;;;8.98;7.35;;;22.60;99.90;;;;;;6279254;27;88473;-76
2023/10/07 09:29:35;;;;;;;8.73;7.20;;;22.50;99.90;;;;;;6274909;27;89473;-74
2023/10/07 09:32:37;;;;;;;9.15;7.75;;;22.60;99.90;;;;;;6282065;27;89037;-74
2023/10/07 09:35:42;;;;;;;8.43;7.47;;;22.50;99.90;;;;;;6281727;27;89700;-75
2023/10/07 09:38:44;;;;;;;8.10;7.28;;;22.50;99.90;;;;;;6270819;27;89081;-74
2023/10/07 09:42:03;;;;;;;8.02;7.22;;;22.50;99.90;;;;;;6281986;27;89050;-75
2023/10/07 09:45:16;;;;;;;8.35;7.35;;;22.50;99.90;;;;;;6281405;27;89218;-75
2023/10/07 09:48:23;;;;;;;8.45;7.20;;;22.50;99.90;;;;;;6282008;27;89317;-75
2023/10/07 09:51:28;;;;;;;8.52;7.10;;;22.60;99.90;;;;;;6281956;27;89373;-75
2023/10/07 09:54:47;;;;;;;8.55;7.43;;;22.60;99.90;;;;;;6276195;27;89519;-74
2023/10/07 09:58:06;;;;;;;7.45;6.75;;;22.60;99.90;;;;;;6278660;27;87418;-74
2023/10/07 10:01:36;;;;;;;9.02;6.85;;;22.60;99.90;;;;;;6270961;27;89157;-75
2023/10/07 10:05:14;;;;;;;7.95;7.00;;;22.60;99.90;;;;;;6277296;27;89006;-74
2023/10/07 10:08:35;;;;;;;7.88;7.05;;;22.60;99.90;;;;;;6280284;27;89676;-74
2023/10/07 10:11:47;;;;;;;7.85;6.85;;;22.60;99.90;;;;;;6281741;27;89168;-74
2023/10/07 10:15:50;;;;;;;7.63;6.78;;;22.60;99.90;;;;;;6280808;27;89023;-74
2023/10/07 10:18:40;;;;;;;7.80;6.47;;;22.60;99.90;;;;;;6282133;27;87984;-74
2023/10/07 10:21:43;;;;;;;7.35;6.65;;;22.60;99.90;;;;;;6270421;27;89056;-74
2023/10/07 10:24:45;;;;;;;7.50;6.75;;;22.60;99.90;;;;;;6280691;27;89024;-73
2023/10/07 10:27:47;;;;;;;7.50;6.70;;;22.60;99.90;;;;;;6281507;27;89114;-75
2023/10/07 10:30:53;;;;;;;7.07;6.38;;;22.60;99.90;;;;;;6282526;27;88326;-74
2023/10/07 10:33:58;;;;;;;8.13;6.88;;;22.60;99.90;;;;;;6280762;27;89063;-75
2023/10/07 10:37:05;;;;;;;6.78;6.18;;;22.50;99.90;;;;;;6279329;27;89138;-74
2023/10/07 10:40:17;;;;;;;6.78;6.07;;;22.60;99.90;;;;;;6279099;27;89945;-74
2023/10/07 10:43:24;;;;;;;6.70;6.03;;;22.60;99.90;;;;;;6278695;27;89024;-74
2023/10/07 10:46:28;;;;;;;8.77;6.80;;;22.60;99.90;;;;;;6276537;27;89052;-75
2023/10/07 10:49:32;;;;;;;7.30;6.18;;;22.60;99.90;;;;;;6276805;27;89012;-75
2023/10/07 10:52:34;;;;;;;6.57;5.97;;;22.60;99.90;;;;;;6280325;27;90533;-74
2023/10/07 10:55:38;;;;;;;6.75;6.13;;;22.60;99.90;;;;;;6280440;27;88494;-75
2023/10/07 10:58:40;;;;;;;6.75;6.05;;;22.60;99.90;;;;;;6281301;27;89135;-75
2023/10/07 11:01:44;;;;;;;6.68;5.75;;;22.60;99.90;;;;;;6281764;27;87202;-74
2023/10/07 11:04:47;;;;;;;6.97;6.20;;;22.60;99.90;;;;;;6280217;27;89108;-75
2023/10/07 11:07:50;;;;;;;7.57;6.47;;;22.60;99.90;;;;;;6279766;27;89046;-76
2023/10/07 11:10:54;;;;;;;6.93;6.20;;;22.60;99.90;;;;;;6279973;27;90338;-75
2023/10/07 11:13:56;;;;;;;6.90;6.20;;;22.60;99.90;;;;;;6273566;27;89017;-76
2023/10/07 11:17:03;;;;;;;6.63;5.95;;;22.60;99.90;;;;;;6277809;27;88654;-75
2023/10/07 11:20:08;;;;;;;6.65;5.95;;;22.60;99.90;;;;;;6278791;27;89375;-77
2023/10/07 11:23:10;;;;;;;6.60;6.00;;;22.60;99.90;;;;;;6280457;27;88997;-76
2023/10/07 11:26:13;;;;;;;6.40;5.65;;;22.60;99.90;;;;;;6279824;27;89126;-77
2023/10/07 11:29:15;;;;;;;7.95;6.18;;;22.60;99.90;;;;;;6270216;27;89022;-75
2023/10/07 11:32:28;;;;;;;6.55;5.72;;;22.60;99.90;;;;;;6279633;27;88345;-75
2023/10/07 11:35:30;;;;;;;7.15;6.18;;;22.60;99.90;;;;;;6271051;27;89097;-76
2023/10/07 11:38:33;;;;;;;6.55;5.85;;;22.60;99.90;;;;;;6278336;27;89016;-75
2023/10/07 11:41:36;;;;;;;6.80;6.10;;;22.60;99.90;;;;;;6278867;27;90043;-77
2023/10/07 11:44:39;;;;;;;6.53;5.68;;;22.60;99.90;;;;;;6279435;27;88967;-77
2023/10/07 11:47:42;;;;;;;6.22;5.63;;;22.60;99.90;;;;;;6290277;27;88192;-77
2023/10/07 11:50:46;;;;;;;6.28;5.53;;;22.60;99.90;;;;;;6279562;27;89899;-75
2023/10/07 11:53:48;;;;;;;6.43;5.78;;;22.60;99.90;;;;;;6278595;27;89095;-75
2023/10/07 11:56:51;;;;;;;6.18;5.38;;;22.60;99.90;;;;;;6280312;27;89130;-75
2023/10/07 11:59:53;;;;;;;6.85;5.70;;;22.60;99.90;;;;;;6279480;27;87986;-75
2023/10/07 12:02:57;;;;;;;6.53;5.78;;;22.60;99.90;;;;;;6280253;27;87270;-75
2023/10/07 12:05:59;;;;;;;6.20;5.60;;;22.60;99.90;;;;;;6273360;27;89022;-75
2023/10/07 12:09:07;;;;;;;5.88;5.20;;;22.60;99.90;;;;;;6265261;27;89043;-75
2023/10/07 12:12:11;;;;;;;7.32;5.10;;;22.60;99.90;;;;;;6278149;27;91017;-74
2023/10/07 12:15:15;;;;;;;10.93;5.68;;;22.60;99.90;;;;;;6277306;27;88963;-74
2023/10/07 12:18:19;;;;;;;6.65;5.22;;;22.60;99.90;;;;;;6276968;27;87996;-73
2023/10/07 12:21:21;;;;;;;6.32;5.32;;;22.60;99.90;;;;;;6283275;27;89061;-74
2023/10/07 12:24:24;;;;;;;6.43;5.20;;;22.60;99.90;;;;;;6283545;27;89074;-73
2023/10/07 12:27:27;;;;;;;5.82;5.22;;;22.60;99.90;;;;;;6284547;27;89040;-75
2023/10/07 12:30:29;;;;;;;5.82;5.22;;;22.60;99.90;;;;;;6283837;27;89695;-74
2023/10/07 12:33:33;;;;;;;5.68;4.85;;;22.60;99.90;;;;;;6284272;27;88326;-74
2023/10/07 12:36:35;;;;;;;5.78;5.18;;;22.60;99.90;;;;;;6282773;27;89087;-74
2023/10/07 12:39:40;;;;;;;5.63;5.05;;;22.60;99.90;;;;;;6282067;27;89125;-75
2023/10/07 12:42:44;;;;;;;5.82;4.90;;;22.60;99.90;;;;;;6283370;27;90074;-74
2023/10/07 12:45:46;;;;;;;5.50;4.90;;;22.60;99.90;;;;;;6282989;27;89743;-73
2023/10/07 12:48:49;;;;;;;6.63;5.07;;;22.60;99.90;;;;;;6292076;27;89106;-74
2023/10/07 12:51:51;;;;;;;5.43;4.93;;;22.60;99.90;;;;;;6282746;27;89031;-74
2023/10/07 12:54:53;;;;;;;5.32;4.82;;;22.60;99.90;;;;;;6280101;27;89047;-74
2023/10/07 12:57:55;;;;;;;5.25;4.75;;;22.60;99.90;;;;;;6283364;27;88282;-74
2023/10/07 13:01:01;;;;;;;6.35;5.43;;;22.60;99.90;;;;;;6281189;27;89042;-73
2023/10/07 13:04:05;;;;;;;5.35;4.82;;;22.60;99.90;;;;;;6282863;27;88407;-74
2023/10/07 13:07:10;;;;;;;6.25;4.78;;;22.60;99.90;;;;;;6281863;27;88462;-75
2023/10/07 13:10:12;;;;;;;5.15;4.65;;;22.60;99.90;;;;;;6281805;27;89135;-75
2023/10/07 13:13:14;;;;;;;4.78;4.18;;;22.60;99.90;;;;;;6282067;27;90308;-73
2023/10/07 13:16:17;;;;;;;5.25;4.70;;;22.60;99.90;;;;;;6283035;27;89166;-74
2023/10/07 13:19:26;;;;;;;5.50;4.65;;;22.60;99.90;;;;;;6282338;27;89122;-74
2023/10/07 13:22:28;;;;;;;6.00;4.68;;;22.60;99.90;;;;;;6278494;27;89136;-75
2023/10/07 13:25:33;;;;;;;4.90;4.40;;;22.60;99.90;;;;;;6281779;27;88922;-75
2023/10/07 13:28:38;;;;;;;4.90;4.40;;;22.60;99.90;;;;;;6282772;27;89113;-74
2023/10/07 13:31:40;;;;;;;5.10;4.38;;;22.60;99.90;;;;;;6280793;27;89083;-75
2023/10/07 13:34:43;;;;;;;6.32;4.63;;;22.60;99.90;;;;;;6279981;27;87207;-75
2023/10/07 13:37:46;;;;;;;5.55;4.90;;;22.70;99.90;;;;;;6277928;27;89230;-75
2023/10/07 13:40:49;;;;;;;5.18;4.30;;;22.60;99.90;;;;;;6281981;27;89059;-75
2023/10/07 13:43:51;;;;;;;5.70;4.38;;;22.60;99.90;;;;;;6281940;27;89836;-75
2023/10/07 13:46:54;;;;;;;4.78;4.13;;;22.60;99.90;;;;;;6283194;27;89544;-75
2023/10/07 13:49:58;;;;;;;6.30;4.80;;;22.60;99.90;;;;;;6281611;27;89177;-75
2023/10/07 13:53:12;;;;;;;4.80;4.30;;;22.60;99.90;;;;;;6282440;27;88995;-74
2023/10/07 13:56:23;;;;;;;6.05;4.47;;;22.60;99.90;;;;;;6275839;27;89027;-75
2023/10/07 13:59:25;;;;;;;5.40;4.63;;;22.60;99.90;;;;;;6281161;27;89132;-76
2023/10/07 14:02:27;;;;;;;5.10;4.13;;;22.60;99.90;;;;;;6282397;27;89031;-76
2023/10/07 14:05:33;;;;;;;4.55;3.95;;;22.60;99.90;;;;;;6282105;27;88312;-76
2023/10/07 14:08:42;;;;;;;4.93;4.13;;;22.70;99.90;;;;;;6281734;27;89560;-77
2023/10/07 14:11:45;;;;;;;4.80;4.30;;;22.60;99.90;;;;;;6281412;27;89074;-76
2023/10/07 14:14:52;;;;;;;5.18;4.50;;;22.60;99.90;;;;;;6276723;27;90134;-77
2023/10/07 14:17:54;;;;;;;5.70;4.40;;;22.60;99.90;;;;;;6281816;27;89132;-76
2023/10/07 14:20:59;;;;;;;5.78;4.55;;;22.70;99.90;;;;;;6281447;27;87943;-77
2023/10/07 14:24:03;;;;;;;6.22;4.43;;;22.60;99.90;;;;;;6282117;27;89125;-75
2023/10/07 14:27:06;;;;;;;5.32;4.50;;;22.60;99.90;;;;;;6280011;27;89233;-78
2023/10/07 14:30:09;;;;;;;4.75;4.00;;;22.60;99.90;;;;;;6278316;27;88791;-76
2023/10/07 14:33:12;;;;;;;5.28;3.85;;;22.60;99.90;;;;;;6275933;27;89185;-77
2023/10/07 14:36:15;;;;;;;4.85;4.32;;;22.60;99.90;;;;;;6281888;27;88908;-76
2023/10/07 14:39:22;;;;;;;4.40;3.83;;;22.60;99.90;;;;;;6276446;27;88506;-75
2023/10/07 14:42:25;;;;;;;4.43;4.03;;;22.60;99.90;;;;;;6281424;27;89027;-77
2023/10/07 14:45:27;;;;;;;5.15;4.35;;;22.60;99.90;;;;;;6278749;27;90065;-77
2023/10/07 14:48:29;;;;;;;4.43;3.85;;;22.60;99.90;;;;;;6291007;27;88986;-76
2023/10/07 14:51:33;;;;;;;5.05;4.22;;;22.60;99.90;;;;;;6279872;27;89019;-76
2023/10/07 14:54:35;;;;;;;5.28;3.97;;;22.60;99.90;;;;;;6275900;27;89086;-76
2023/10/07 14:57:37;;;;;;;4.70;4.20;;;22.60;99.90;;;;;;6277717;27;89019;-77
2023/10/07 15:00:43;;;;;;;6.13;4.03;;;22.60;99.90;;;;;;6280516;27;89450;-76
2023/10/07 15:03:45;;;;;;;4.47;3.95;;;22.70;99.90;;;;;;6280628;27;87958;-76
2023/10/07 15:06:48;;;;;;;4.60;4.10;;;22.60;99.90;;;;;;6280276;27;88519;-76
2023/10/07 15:09:52;;;;;;;4.70;4.20;;;22.60;99.90;;;;;;6280295;27;89134;-77
2023/10/07 15:12:56;;;;;;;4.82;4.00;;;22.60;99.90;;;;;;6280571;27;88728;-76
2023/10/07 15:15:58;;;;;;;5.20;4.18;;;22.60;99.90;;;;;;6279427;27;90546;-75
2023/10/07 15:19:01;;;;;;;6.80;6.20;;;22.60;99.90;;;;;;6280964;27;89084;-76
2023/10/07 15:22:06;;;;;;;4.78;4.07;;;22.60;99.90;;;;;;6277534;27;87887;-75
2023/10/07 15:25:09;;;;;;;5.25;4.00;;;22.70;99.90;;;;;;6285499;27;89200;-74
2023/10/07 15:28:14;;;;;;;5.20;3.92;;;22.70;99.90;;;;;;6282067;27;87943;-73
2023/10/07 15:31:21;;;;;;;5.40;3.85;;;22.70;99.90;;;;;;6288104;27;87973;-74
2023/10/07 15:34:24;;;;;;;5.18;4.03;;;22.70;99.90;;;;;;6277929;27;89053;-74
2023/10/07 15:37:28;;;;;;;5.30;4.50;;;22.70;99.90;;;;;;6272794;27;88463;-74
2023/10/07 15:40:30;;;;;;;4.57;4.07;;;22.60;99.90;;;;;;6282132;27;89070;-73
2023/10/07 15:43:32;;;;;;;4.63;3.72;;;22.60;99.90;;;;;;6280117;27;89008;-74
2023/10/07 15:46:35;;;;;;;4.95;3.90;;;22.70;99.90;;;;;;6279691;27;90106;-74
2023/10/07 15:49:36;;;;;;;5.15;4.03;;;22.60;99.90;;;;;;6285438;27;89010;-74
2023/10/07 15:52:45;;;;;;;5.13;3.95;;;22.60;99.90;;;;;;6277321;27;89066;-74
2023/10/07 15:55:47;;;;;;;5.22;4.38;;;22.70;99.90;;;;;;6285196;27;89096;-74
2023/10/07 15:58:49;;;;;;;5.07;3.95;;;22.60;99.90;;;;;;6283957;27;89405;-74